Waldheim, Canada
Current Conditions -  °F | °C
As of 8:19 AM on Monday 22 Dec 2014 (Local Time) from CYXE Reporting Station
Light Snow Light Snow  
Wind Chill: 12°   Ceiling: 400
Heat Index: 21°   Visibility: 5mi
Dew Point: 21°   Wind: 8mph
Humidity: 100%   Direction: 340°NNW
Pressure: 29.7"   Gusts: NA
Location:  52.62°N, 106.65°W
Report Text: CYXE 221419Z 34007KT 5SM -SN BR OVC004 M06/M06 A2970 RMK ST8 PCPN VRY LGT SLP089
Loading
Personal Weather Stations






























Interactive Weather Map New forecast layout! Learn more

10-Day Weather Forecast

Advertisements
Track Severe Weather on mobile